createdAt,value
2023-02-19T00:01:46.203Z,9.30
2023-02-19T00:04:19.286Z,9.30
2023-02-19T00:06:47.454Z,9.20
2023-02-19T00:09:16.012Z,9.20
2023-02-19T00:11:43.332Z,9.10
2023-02-19T00:14:14.993Z,9.10
2023-02-19T00:16:42.197Z,9.10
2023-02-19T00:19:14.229Z,9.10
2023-02-19T00:21:41.402Z,9.00
2023-02-19T00:24:10.798Z,9.00
2023-02-19T00:26:40.047Z,9.00
2023-02-19T00:29:07.139Z,9.00
2023-02-19T00:31:35.961Z,8.90
2023-02-19T00:34:05.868Z,8.80
2023-02-19T00:36:36.261Z,8.60
2023-02-19T00:39:03.856Z,8.60
2023-02-19T00:41:30.986Z,8.50
2023-02-19T00:44:03.160Z,8.40
2023-02-19T00:46:36.225Z,8.50
2023-02-19T00:49:03.789Z,8.50
2023-02-19T00:51:33.797Z,8.50
2023-02-19T00:54:01.334Z,8.40
2023-02-19T00:56:28.880Z,8.30
2023-02-19T00:58:56.245Z,8.30
2023-02-19T01:01:23.879Z,8.30
2023-02-19T01:03:51.091Z,8.30
2023-02-19T01:06:19.785Z,8.20
2023-02-19T01:08:47.411Z,8.10
2023-02-19T01:11:15.083Z,8.00
2023-02-19T01:13:42.750Z,7.90
2023-02-19T01:16:21.526Z,7.90
2023-02-19T01:18:49.821Z,7.90
2023-02-19T01:21:22.423Z,7.90
2023-02-19T01:23:50.995Z,7.80
2023-02-19T01:26:21.283Z,7.60
2023-02-19T01:28:48.893Z,7.60
2023-02-19T01:31:18.962Z,7.50
2023-02-19T01:33:47.774Z,7.50
2023-02-19T01:36:15.963Z,7.30
2023-02-19T01:38:44.257Z,7.30
2023-02-19T01:41:14.784Z,7.30
2023-02-19T01:44:12.965Z,7.20
2023-02-19T01:46:41.961Z,7.20
2023-02-19T01:49:27.371Z,7.10
2023-02-19T01:52:04.625Z,7.10
2023-02-19T01:54:35.408Z,7.10
2023-02-19T01:57:06.813Z,7.00
2023-02-19T01:59:34.628Z,6.90
2023-02-19T02:02:02.061Z,6.80
2023-02-19T02:04:31.947Z,6.80
2023-02-19T02:07:01.387Z,6.80
2023-02-19T02:09:49.155Z,6.80
2023-02-19T02:12:16.536Z,6.60
2023-02-19T02:14:48.013Z,6.60
2023-02-19T02:17:25.469Z,6.60
2023-02-19T02:20:07.637Z,6.50
2023-02-19T02:22:55.800Z,6.50
2023-02-19T02:25:41.734Z,6.50
2023-02-19T02:28:39.568Z,6.50
2023-02-19T02:31:15.392Z,6.50
2023-02-19T02:34:13.257Z,6.50
2023-02-19T02:36:44.702Z,6.40
2023-02-19T02:39:15.571Z,6.40
2023-02-19T02:41:45.644Z,6.50
2023-02-19T02:44:13.091Z,6.40
2023-02-19T02:46:44.766Z,6.40
2023-02-19T02:49:24.266Z,6.40
2023-02-19T02:51:53.971Z,6.40
2023-02-19T02:54:47.904Z,6.40
2023-02-19T02:57:16.592Z,6.40
2023-02-19T02:59:44.702Z,6.20
2023-02-19T03:02:32.312Z,6.10
2023-02-19T03:05:41.495Z,6.10
2023-02-19T03:08:21.454Z,6.00
2023-02-19T03:10:53.584Z,6.00
2023-02-19T03:13:52.857Z,6.00
2023-02-19T03:17:09.894Z,6.00
2023-02-19T03:19:43.448Z,6.00
2023-02-19T03:22:20.136Z,6.00
2023-02-19T03:25:22.686Z,6.00
2023-02-19T03:27:51.500Z,5.90
2023-02-19T03:30:28.704Z,5.80
2023-02-19T03:33:01.282Z,5.80
2023-02-19T03:35:31.964Z,5.80
2023-02-19T03:38:19.819Z,5.90
2023-02-19T03:40:59.597Z,5.90
2023-02-19T03:43:42.518Z,5.90
2023-02-19T03:46:23.405Z,5.90
2023-02-19T03:49:00.326Z,5.90
2023-02-19T03:51:40.594Z,5.80
2023-02-19T03:54:24.934Z,5.80
2023-02-19T03:57:26.577Z,5.70
2023-02-19T04:00:03.525Z,5.60
2023-02-19T04:02:35.060Z,5.60
2023-02-19T04:05:19.522Z,5.60
2023-02-19T04:07:50.192Z,5.60
2023-02-19T04:10:19.229Z,5.60
2023-02-19T04:12:51.794Z,5.60
2023-02-19T04:15:24.729Z,5.60
2023-02-19T04:17:56.585Z,5.60
2023-02-19T04:20:28.097Z,5.60
2023-02-19T04:22:56.053Z,5.50
2023-02-19T04:25:24.361Z,5.60
2023-02-19T04:27:51.693Z,5.50
2023-02-19T04:30:18.833Z,5.50
2023-02-19T04:32:45.842Z,5.60
2023-02-19T04:35:12.900Z,5.60
2023-02-19T04:37:39.922Z,5.60
2023-02-19T04:40:07.438Z,5.50
2023-02-19T04:42:34.456Z,5.50
2023-02-19T04:45:01.573Z,5.50
2023-02-19T04:47:28.661Z,5.40
2023-02-19T04:49:55.759Z,5.40
2023-02-19T04:52:22.774Z,5.30
2023-02-19T04:54:49.952Z,5.30
2023-02-19T04:57:17.074Z,5.30
2023-02-19T04:59:44.196Z,5.20
2023-02-19T05:02:11.250Z,5.20
2023-02-19T05:04:38.304Z,5.20
2023-02-19T05:07:05.490Z,5.20
2023-02-19T05:09:32.505Z,5.10
2023-02-19T05:11:59.545Z,5.10
2023-02-19T05:14:26.574Z,5.00
2023-02-19T05:16:53.591Z,5.10
2023-02-19T05:19:20.905Z,5.10
2023-02-19T05:21:47.988Z,5.20
2023-02-19T05:24:15.082Z,5.10
2023-02-19T05:26:44.602Z,5.30
2023-02-19T05:29:12.485Z,5.30
2023-02-19T05:31:39.616Z,5.30
2023-02-19T05:34:06.764Z,5.30
2023-02-19T05:36:34.216Z,5.30
2023-02-19T05:39:01.305Z,5.30
2023-02-19T05:41:30.009Z,5.30
2023-02-19T05:43:57.844Z,5.30
2023-02-19T05:46:27.902Z,5.20
2023-02-19T05:48:55.854Z,5.20
2023-02-19T05:51:25.517Z,5.30
2023-02-19T05:53:53.310Z,5.30
2023-02-19T05:56:26.535Z,5.30
2023-02-19T05:58:54.034Z,5.30
2023-02-19T06:01:23.754Z,5.30
2023-02-19T06:03:50.843Z,5.20
2023-02-19T06:06:19.753Z,5.20
2023-02-19T06:08:48.425Z,5.20
2023-02-19T06:11:15.461Z,5.30
2023-02-19T06:13:42.531Z,5.30
2023-02-19T06:16:09.975Z,5.30
2023-02-19T06:18:37.276Z,5.40
2023-02-19T06:21:06.220Z,5.40
2023-02-19T06:23:33.656Z,5.50
2023-02-19T06:26:16.233Z,5.70
2023-02-19T06:28:43.356Z,5.70
2023-02-19T06:31:11.896Z,5.80
2023-02-19T06:33:43.272Z,5.90
2023-02-19T06:36:16.795Z,5.90
2023-02-19T06:38:43.921Z,5.90
2023-02-19T06:41:12.563Z,6.10
2023-02-19T06:43:41.243Z,6.20
2023-02-19T06:46:09.157Z,6.20
2023-02-19T06:48:40.426Z,6.30
2023-02-19T06:51:11.655Z,6.50
2023-02-19T06:53:39.434Z,6.20
2023-02-19T06:56:21.022Z,6.40
2023-02-19T06:58:48.291Z,6.40
2023-02-19T07:01:15.680Z,6.50
2023-02-19T07:03:42.920Z,6.70
2023-02-19T07:06:10.111Z,6.80
2023-02-19T07:08:37.473Z,6.90
2023-02-19T07:11:04.785Z,7.00
2023-02-19T07:13:32.197Z,7.10
2023-02-19T07:16:01.283Z,7.10
2023-02-19T07:18:29.698Z,7.30
2023-02-19T07:21:08.481Z,7.50
2023-02-19T07:23:35.862Z,7.70
2023-02-19T07:26:04.329Z,7.80
2023-02-19T07:28:31.414Z,8.00
2023-02-19T07:31:05.357Z,8.00
2023-02-19T07:33:32.470Z,8.00
2023-02-19T07:35:59.574Z,8.20
2023-02-19T07:38:27.104Z,8.30
2023-02-19T07:40:55.839Z,8.60
2023-02-19T07:43:28.132Z,8.80
2023-02-19T07:45:55.596Z,8.70
2023-02-19T07:48:23.254Z,8.40
2023-02-19T07:50:55.086Z,8.60
2023-02-19T07:53:23.474Z,8.70
2023-02-19T07:55:50.790Z,8.90
2023-02-19T07:58:18.655Z,9.10
2023-02-19T08:00:46.294Z,9.20
2023-02-19T08:03:17.751Z,9.30
2023-02-19T08:05:52.585Z,9.50
2023-02-19T08:08:20.431Z,9.60
2023-02-19T08:11:06.195Z,9.60
2023-02-19T08:13:34.307Z,9.50
2023-02-19T08:16:16.983Z,9.70
2023-02-19T08:18:46.675Z,9.90
2023-02-19T08:21:15.383Z,10.00
2023-02-19T08:23:43.818Z,10.10
2023-02-19T08:26:11.211Z,10.20
2023-02-19T08:28:38.388Z,10.50
2023-02-19T08:31:07.320Z,10.60
2023-02-19T08:33:34.944Z,10.80
2023-02-19T08:36:05.115Z,10.90
2023-02-19T08:38:34.840Z,11.00
2023-02-19T08:41:07.582Z,11.10
2023-02-19T08:43:35.399Z,11.30
2023-02-19T08:46:03.313Z,11.40
2023-02-19T08:48:30.614Z,11.50
2023-02-19T08:50:59.967Z,11.80
2023-02-19T08:53:27.508Z,12.20
2023-02-19T08:55:54.771Z,12.10
2023-02-19T08:58:22.172Z,12.10
2023-02-19T09:00:49.396Z,12.30
2023-02-19T09:03:16.367Z,12.50
2023-02-19T09:05:43.471Z,12.60
2023-02-19T09:08:11.545Z,12.60
2023-02-19T09:10:38.819Z,12.80
2023-02-19T09:13:05.898Z,13.20
2023-02-19T09:15:33.698Z,13.30
2023-02-19T09:18:01.077Z,13.60
2023-02-19T09:20:28.124Z,13.90
2023-02-19T09:22:59.115Z,14.20
2023-02-19T09:25:26.338Z,14.50
2023-02-19T09:27:57.479Z,14.50
2023-02-19T09:30:24.735Z,14.80
2023-02-19T09:32:52.050Z,15.00
2023-02-19T09:35:20.488Z,15.20
2023-02-19T09:37:47.566Z,15.50
2023-02-19T09:40:15.989Z,15.80
2023-02-19T09:42:43.586Z,16.00
2023-02-19T09:45:25.185Z,16.30
2023-02-19T09:47:59.200Z,16.50
2023-02-19T09:50:38.767Z,16.90
2023-02-19T09:53:19.363Z,17.20
2023-02-19T09:55:46.666Z,17.20
2023-02-19T09:58:25.043Z,17.20
2023-02-19T10:00:54.319Z,17.00
2023-02-19T10:03:28.677Z,17.00
2023-02-19T10:05:57.013Z,17.00
2023-02-19T10:08:24.213Z,16.90
2023-02-19T10:10:52.603Z,17.00
2023-02-19T10:13:21.537Z,17.10
2023-02-19T10:15:58.308Z,17.20
2023-02-19T10:18:31.519Z,17.10
2023-02-19T10:20:59.239Z,17.20
2023-02-19T10:23:26.672Z,17.20
2023-02-19T10:25:57.650Z,17.20
2023-02-19T10:28:31.439Z,17.20
2023-02-19T10:31:08.457Z,17.20
2023-02-19T10:33:56.577Z,17.10
2023-02-19T10:36:41.847Z,16.80
2023-02-19T10:39:29.002Z,16.60
2023-02-19T10:41:56.124Z,16.50
2023-02-19T10:44:31.797Z,16.30
2023-02-19T10:47:03.187Z,16.40
2023-02-19T10:49:46.693Z,16.50
2023-02-19T10:52:19.779Z,16.40
2023-02-19T10:54:54.045Z,16.50
2023-02-19T10:57:48.849Z,16.40
2023-02-19T11:00:15.977Z,16.50
2023-02-19T11:02:44.476Z,16.30
2023-02-19T11:05:23.879Z,16.40
2023-02-19T11:07:58.719Z,16.50
2023-02-19T11:10:35.985Z,16.70
2023-02-19T11:13:06.122Z,16.70
2023-02-19T11:15:35.991Z,17.00
2023-02-19T11:18:29.352Z,17.10
2023-02-19T11:21:01.106Z,17.30
2023-02-19T11:23:31.692Z,17.50
2023-02-19T11:26:03.183Z,17.70
2023-02-19T11:28:39.519Z,17.60
2023-02-19T11:31:30.135Z,17.70
2023-02-19T11:34:02.755Z,17.40
2023-02-19T11:36:35.316Z,17.40
2023-02-19T11:39:22.066Z,17.30
2023-02-19T11:42:22.901Z,17.50
2023-02-19T11:45:16.100Z,17.50
2023-02-19T11:48:10.948Z,17.50
2023-02-19T11:50:50.280Z,17.50
2023-02-19T11:53:30.196Z,17.80
2023-02-19T11:56:16.849Z,17.70
2023-02-19T11:59:01.045Z,17.60
2023-02-19T12:01:36.331Z,17.60
2023-02-19T12:04:18.777Z,17.70
2023-02-19T12:07:21.220Z,17.80
2023-02-19T12:10:19.694Z,18.00
2023-02-19T12:13:14.332Z,17.90
2023-02-19T12:18:51.655Z,17.40
2023-02-19T12:21:39.152Z,17.30
2023-02-19T12:24:24.988Z,17.30
2023-02-19T12:27:13.052Z,17.30
2023-02-19T12:30:17.576Z,17.40
2023-02-19T12:33:04.718Z,17.50
2023-02-19T12:35:44.720Z,17.40
2023-02-19T12:38:26.593Z,17.40
2023-02-19T12:41:18.466Z,17.40
2023-02-19T12:43:56.201Z,17.50
2023-02-19T12:46:31.855Z,17.30
2023-02-19T12:49:07.307Z,17.20
2023-02-19T12:51:49.830Z,17.20
2023-02-19T12:54:25.847Z,17.50
2023-02-19T12:57:23.051Z,17.50
2023-02-19T13:00:28.046Z,17.50
2023-02-19T13:03:22.877Z,17.30
2023-02-19T13:06:03.474Z,17.20
2023-02-19T13:08:36.617Z,17.30
2023-02-19T13:11:34.546Z,17.20
2023-02-19T13:14:17.916Z,17.10
2023-02-19T13:16:50.858Z,17.00
2023-02-19T13:19:17.865Z,17.00
2023-02-19T13:22:10.034Z,17.10
2023-02-19T13:24:41.926Z,17.00
2023-02-19T13:27:41.671Z,17.10
2023-02-19T13:30:11.852Z,17.30
2023-02-19T13:32:54.108Z,17.40
2023-02-19T13:35:45.227Z,17.40
2023-02-19T13:38:14.077Z,17.50
2023-02-19T13:40:53.097Z,17.30
2023-02-19T13:43:30.668Z,17.30
2023-02-19T13:46:05.584Z,17.40
2023-02-19T13:48:44.386Z,17.40
2023-02-19T13:51:18.920Z,17.50
2023-02-19T13:53:45.948Z,17.50
2023-02-19T13:56:36.741Z,17.40
2023-02-19T13:59:12.892Z,17.40
2023-02-19T14:01:52.060Z,17.30
2023-02-19T14:04:23.832Z,17.10
2023-02-19T14:07:05.980Z,17.00
2023-02-19T14:09:44.085Z,17.20
2023-02-19T14:12:11.563Z,17.00
2023-02-19T14:14:50.059Z,16.90
2023-02-19T14:17:38.549Z,16.80
2023-02-19T14:20:17.715Z,16.80
2023-02-19T14:22:48.834Z,16.70
2023-02-19T14:25:24.857Z,16.70
2023-02-19T14:27:54.370Z,16.60
2023-02-19T14:30:24.411Z,16.40
2023-02-19T14:33:02.711Z,16.40
2023-02-19T14:35:49.679Z,16.30
2023-02-19T14:38:30.521Z,16.40
2023-02-19T14:40:57.965Z,16.30
2023-02-19T14:43:26.773Z,16.30
2023-02-19T14:46:01.386Z,16.40
2023-02-19T14:48:36.840Z,16.40
2023-02-19T14:51:10.083Z,16.30
2023-02-19T14:53:44.478Z,16.10
2023-02-19T14:56:28.356Z,16.10
2023-02-19T14:59:07.639Z,16.00
2023-02-19T15:01:34.792Z,15.80
2023-02-19T15:04:02.739Z,16.00
2023-02-19T15:06:31.916Z,15.80
2023-02-19T15:09:06.119Z,15.70
2023-02-19T15:11:34.836Z,15.50
2023-02-19T15:14:07.859Z,15.40
2023-02-19T15:16:36.935Z,15.30
2023-02-19T15:19:08.877Z,15.20
2023-02-19T15:21:40.321Z,15.10
2023-02-19T15:24:07.868Z,15.10
2023-02-19T15:26:36.154Z,14.90
2023-02-19T15:29:10.672Z,14.90
2023-02-19T15:31:44.562Z,14.90
2023-02-19T15:34:31.980Z,14.80
2023-02-19T15:37:02.645Z,14.80
2023-02-19T15:39:33.751Z,14.60
2023-02-19T15:42:03.862Z,14.60
2023-02-19T15:44:40.128Z,14.50
2023-02-19T15:47:36.271Z,14.60
2023-02-19T15:50:12.889Z,14.50
2023-02-19T15:52:51.009Z,14.50
2023-02-19T15:55:41.906Z,14.40
2023-02-19T15:58:09.373Z,14.30
2023-02-19T16:00:46.582Z,14.20
2023-02-19T16:03:20.193Z,14.10
2023-02-19T16:05:58.539Z,14.00
2023-02-19T16:08:40.024Z,14.00
2023-02-19T16:11:30.653Z,13.80
2023-02-19T16:14:22.122Z,13.70
2023-02-19T16:17:04.522Z,13.50
2023-02-19T16:19:43.952Z,13.40
2023-02-19T16:22:13.452Z,13.40
2023-02-19T16:24:53.494Z,13.30
2023-02-19T16:27:35.013Z,13.10
2023-02-19T16:30:25.926Z,13.00
2023-02-19T16:33:22.239Z,12.90
2023-02-19T16:35:52.568Z,12.70
2023-02-19T16:38:20.946Z,12.60
2023-02-19T16:40:51.139Z,12.50
2023-02-19T16:43:30.615Z,12.50
2023-02-19T16:45:58.856Z,12.40
2023-02-19T16:48:26.035Z,12.30
2023-02-19T16:50:54.422Z,12.20
2023-02-19T16:53:25.054Z,12.20
2023-02-19T16:55:52.743Z,12.10
2023-02-19T16:58:20.061Z,12.00
2023-02-19T17:00:51.665Z,11.90
2023-02-19T17:03:22.804Z,11.90
2023-02-19T17:05:52.161Z,11.80
2023-02-19T17:08:35.642Z,11.80
2023-02-19T17:11:10.805Z,11.70
2023-02-19T17:13:38.300Z,11.70
2023-02-19T17:16:06.463Z,11.70
2023-02-19T17:18:35.255Z,11.70
2023-02-19T17:21:11.175Z,11.60
2023-02-19T17:23:38.403Z,11.60
2023-02-19T17:26:06.616Z,11.70
2023-02-19T17:28:34.862Z,11.70
2023-02-19T17:31:01.971Z,11.70
2023-02-19T17:33:29.010Z,11.70
2023-02-19T17:35:56.079Z,11.60
2023-02-19T17:38:23.135Z,11.70
2023-02-19T17:40:54.547Z,11.70
2023-02-19T17:43:24.729Z,11.60
2023-02-19T17:45:54.090Z,11.50
2023-02-19T17:48:21.143Z,11.60
2023-02-19T17:50:50.330Z,11.60
2023-02-19T17:53:18.626Z,11.60
2023-02-19T17:55:47.414Z,11.70
2023-02-19T17:58:16.134Z,11.70
2023-02-19T18:00:46.714Z,11.60
2023-02-19T18:03:13.975Z,11.50
2023-02-19T18:05:41.136Z,11.60
2023-02-19T18:08:09.882Z,11.50
2023-02-19T18:10:38.419Z,11.50
2023-02-19T18:13:05.498Z,11.40
2023-02-19T18:15:32.760Z,11.40
2023-02-19T18:17:59.909Z,11.40
2023-02-19T18:20:29.502Z,11.40
2023-02-19T18:22:57.376Z,11.40
2023-02-19T18:25:24.632Z,11.30
2023-02-19T18:27:52.552Z,11.40
2023-02-19T18:30:23.535Z,11.30
2023-02-19T18:32:52.933Z,11.30
2023-02-19T18:35:22.101Z,11.30
2023-02-19T18:37:53.064Z,11.30
2023-02-19T18:40:21.444Z,11.20
2023-02-19T18:42:48.541Z,11.20
2023-02-19T18:45:15.753Z,11.20
2023-02-19T18:47:42.954Z,11.20
2023-02-19T18:50:11.726Z,11.20
2023-02-19T18:52:38.855Z,11.20
2023-02-19T18:55:06.306Z,11.20
2023-02-19T18:57:33.358Z,11.20
2023-02-19T19:00:00.456Z,11.20
2023-02-19T19:02:33.760Z,11.20
2023-02-19T19:05:07.090Z,11.20
2023-02-19T19:07:34.112Z,11.10
2023-02-19T19:10:01.180Z,11.00
2023-02-19T19:12:28.202Z,10.90
2023-02-19T19:14:55.534Z,10.90
2023-02-19T19:17:22.600Z,10.90
2023-02-19T19:19:49.921Z,10.90
2023-02-19T19:22:22.808Z,10.90
2023-02-19T19:24:50.134Z,10.80
2023-02-19T19:27:20.676Z,10.80
2023-02-19T19:29:48.177Z,10.80
2023-02-19T19:32:15.348Z,10.70
2023-02-19T19:34:43.581Z,10.60
2023-02-19T19:37:11.029Z,10.50
2023-02-19T19:39:38.421Z,10.40
2023-02-19T19:42:07.884Z,10.30
2023-02-19T19:44:34.949Z,10.10
2023-02-19T19:47:02.040Z,10.10
2023-02-19T19:49:29.074Z,10.00
2023-02-19T19:51:58.597Z,10.00
2023-02-19T19:54:25.737Z,10.00
2023-02-19T19:56:52.785Z,10.00
2023-02-19T19:59:19.953Z,10.00
2023-02-19T20:01:52.244Z,10.00
2023-02-19T20:04:21.524Z,9.90
2023-02-19T20:06:49.068Z,9.80
2023-02-19T20:09:17.359Z,9.80
2023-02-19T20:11:52.519Z,9.60
2023-02-19T20:14:20.998Z,9.50
2023-02-19T20:16:48.773Z,9.50
2023-02-19T20:19:17.401Z,9.40
2023-02-19T20:21:46.101Z,9.30
2023-02-19T20:24:25.256Z,9.20
2023-02-19T20:26:59.191Z,9.20
2023-02-19T20:29:29.217Z,9.30
2023-02-19T20:32:00.036Z,9.30
2023-02-19T20:34:27.342Z,9.30
2023-02-19T20:36:54.741Z,9.30
2023-02-19T20:39:22.532Z,9.20
2023-02-19T20:41:51.825Z,9.30
2023-02-19T20:44:19.600Z,9.20
2023-02-19T20:46:49.457Z,9.00
2023-02-19T20:49:19.315Z,9.00
2023-02-19T20:52:00.768Z,8.90
2023-02-19T20:54:39.214Z,8.80
2023-02-19T20:57:08.365Z,8.70
2023-02-19T20:59:35.845Z,8.60
2023-02-19T21:02:05.776Z,8.50
2023-02-19T21:04:44.657Z,8.50
2023-02-19T21:07:16.826Z,8.40
2023-02-19T21:09:45.313Z,8.30
2023-02-19T21:12:14.680Z,8.30
2023-02-19T21:14:42.844Z,8.20
2023-02-19T21:17:10.561Z,8.10
2023-02-19T21:19:37.644Z,8.10
2023-02-19T21:22:06.933Z,8.10
2023-02-19T21:24:34.725Z,8.00
2023-02-19T21:27:03.701Z,8.00
2023-02-19T21:29:32.170Z,8.00
2023-02-19T21:32:01.254Z,8.10
2023-02-19T21:34:30.218Z,8.10
2023-02-19T21:36:57.844Z,8.10
2023-02-19T21:39:26.439Z,8.00
2023-02-19T21:41:53.781Z,8.00
2023-02-19T21:44:22.579Z,8.00
2023-02-19T21:46:49.738Z,8.10
2023-02-19T21:49:17.415Z,8.00
2023-02-19T21:51:48.081Z,7.90
2023-02-19T21:54:24.947Z,7.90
2023-02-19T21:56:53.799Z,8.00
2023-02-19T21:59:22.720Z,7.90
2023-02-19T22:01:50.778Z,7.90
2023-02-19T22:04:21.251Z,8.00
2023-02-19T22:06:49.674Z,8.00
2023-02-19T22:09:17.466Z,7.90
2023-02-19T22:11:44.817Z,7.90
2023-02-19T22:14:12.018Z,7.90
2023-02-19T22:16:39.132Z,7.90
2023-02-19T22:19:06.489Z,8.00
2023-02-19T22:21:34.238Z,7.90
2023-02-19T22:24:02.806Z,7.80
2023-02-19T22:26:33.739Z,7.70
2023-02-19T22:29:07.531Z,7.80
2023-02-19T22:31:35.854Z,7.70
2023-02-19T22:34:04.116Z,7.70
2023-02-19T22:36:34.393Z,7.50
2023-02-19T22:39:01.676Z,7.50
2023-02-19T22:41:28.969Z,7.40
2023-02-19T22:43:57.977Z,7.40
2023-02-19T22:46:28.726Z,7.40
2023-02-19T22:48:57.486Z,7.50
2023-02-19T22:51:25.260Z,7.40
2023-02-19T22:53:59.399Z,7.30
2023-02-19T22:56:28.647Z,7.20
2023-02-19T22:58:56.765Z,7.20
2023-02-19T23:01:25.436Z,7.20
2023-02-19T23:03:59.332Z,7.10
2023-02-19T23:06:32.010Z,7.10
2023-02-19T23:09:08.502Z,7.00
2023-02-19T23:11:39.764Z,7.00
2023-02-19T23:14:07.442Z,7.00
2023-02-19T23:16:36.759Z,6.90
2023-02-19T23:19:10.675Z,6.80
2023-02-19T23:21:39.293Z,6.80
2023-02-19T23:24:08.175Z,6.70
2023-02-19T23:26:35.429Z,6.70
2023-02-19T23:29:05.110Z,6.70
2023-02-19T23:31:33.096Z,6.70
2023-02-19T23:34:00.120Z,6.60
2023-02-19T23:36:27.465Z,6.60
2023-02-19T23:38:54.542Z,6.50
2023-02-19T23:41:21.623Z,6.50
2023-02-19T23:43:48.750Z,6.50
2023-02-19T23:46:17.860Z,6.50
2023-02-19T23:48:46.469Z,6.50
2023-02-19T23:51:13.614Z,6.40
2023-02-19T23:53:41.007Z,6.40
2023-02-19T23:56:08.613Z,6.30
2023-02-19T23:58:35.896Z,6.30
